createdAt,value
2019-05-22T00:01:49.718Z,98350.80
2019-05-22T00:04:42.205Z,98351.28
2019-05-22T00:07:13.430Z,98357.49
2019-05-22T00:09:49.568Z,98360.51
2019-05-22T00:12:21.276Z,98359.69
2019-05-22T00:14:52.605Z,98357.02
2019-05-22T00:17:30.361Z,98361.87
2019-05-22T00:20:00.327Z,98360.52
2019-05-22T00:22:31.478Z,98363.52
2019-05-22T00:25:01.952Z,98375.25
2019-05-22T00:27:32.360Z,98370.23
2019-05-22T00:30:02.140Z,98373.91
2019-05-22T00:32:31.204Z,98373.41
2019-05-22T00:35:00.181Z,98376.92
2019-05-22T00:37:29.635Z,98380.78
2019-05-22T00:40:00.251Z,98375.25
2019-05-22T00:42:29.176Z,98379.61
2019-05-22T00:44:59.561Z,98378.74
2019-05-22T00:47:31.337Z,98371.73
2019-05-22T00:50:03.705Z,98364.50
2019-05-22T00:53:00.210Z,98366.02
2019-05-22T00:55:50.373Z,98365.84
2019-05-22T00:58:30.117Z,98363.67
2019-05-22T01:01:12.818Z,98366.35
2019-05-22T01:03:43.409Z,98365.54
2019-05-22T01:06:13.215Z,98366.02
2019-05-22T01:08:44.478Z,98373.38
2019-05-22T01:11:14.970Z,98376.91
2019-05-22T01:13:45.647Z,98374.92
2019-05-22T01:16:17.460Z,98374.39
2019-05-22T01:18:47.340Z,98373.72
2019-05-22T01:21:21.634Z,98381.42
2019-05-22T01:23:52.427Z,98379.08
2019-05-22T01:26:22.938Z,98380.58
2019-05-22T01:28:53.164Z,98381.09
2019-05-22T01:31:31.036Z,98371.20
2019-05-22T01:34:05.764Z,98373.22
2019-05-22T01:36:47.096Z,98367.69
2019-05-22T01:39:28.201Z,98375.56
2019-05-22T01:41:59.081Z,98378.91
2019-05-22T01:44:30.205Z,98385.27
2019-05-22T01:47:04.378Z,98388.62
2019-05-22T01:49:35.189Z,98396.33
2019-05-22T01:52:04.106Z,98393.81
2019-05-22T01:54:33.171Z,98392.81
2019-05-22T01:57:06.960Z,98397.33
2019-05-22T01:59:36.729Z,98396.99
2019-05-22T02:02:09.441Z,98406.33
2019-05-22T02:04:38.620Z,98409.39
2019-05-22T02:07:09.434Z,98406.50
2019-05-22T02:09:40.713Z,98409.34
2019-05-22T02:12:34.759Z,98402.30
2019-05-22T02:15:04.849Z,98411.31
2019-05-22T02:17:35.325Z,98414.52
2019-05-22T02:20:06.660Z,98416.21
2019-05-22T02:22:36.643Z,98418.89
2019-05-22T02:25:06.363Z,98421.22
2019-05-22T02:27:35.485Z,98417.83
2019-05-22T02:30:14.636Z,98421.52
2019-05-22T02:32:46.239Z,98416.83
2019-05-22T02:35:16.326Z,98418.84
2019-05-22T02:37:45.340Z,98424.73
2019-05-22T02:40:19.304Z,98426.04
2019-05-22T02:42:48.791Z,98424.70
2019-05-22T02:45:18.421Z,98429.88
2019-05-22T02:47:48.874Z,98433.55
2019-05-22T02:50:18.246Z,98432.03
2019-05-22T02:52:47.844Z,98442.42
2019-05-22T02:55:16.752Z,98434.39
2019-05-22T02:57:46.598Z,98435.39
2019-05-22T03:00:16.838Z,98435.74
2019-05-22T03:02:51.090Z,98433.61
2019-05-22T03:05:20.756Z,98434.79
2019-05-22T03:07:49.861Z,98442.98
2019-05-22T03:10:22.500Z,98446.63
2019-05-22T03:12:52.115Z,98447.45
2019-05-22T03:15:24.314Z,98449.45
2019-05-22T03:18:01.818Z,98447.09
2019-05-22T03:20:33.216Z,98450.57
2019-05-22T03:23:41.025Z,98462.63
2019-05-22T03:26:11.134Z,98457.15
2019-05-22T03:28:40.921Z,98460.48
2019-05-22T03:31:10.720Z,98466.70
2019-05-22T03:33:40.036Z,98459.48
2019-05-22T03:36:13.611Z,98459.83
2019-05-22T03:38:44.085Z,98456.47
2019-05-22T03:41:14.005Z,98469.19
2019-05-22T03:43:46.005Z,98467.34
2019-05-22T03:46:25.184Z,98465.84
2019-05-22T03:48:54.836Z,98464.62
2019-05-22T03:51:24.260Z,98467.20
2019-05-22T03:53:54.145Z,98466.95
2019-05-22T03:56:24.022Z,98473.14
2019-05-22T03:58:53.382Z,98472.49
2019-05-22T04:01:23.378Z,98474.39
2019-05-22T04:03:52.460Z,98478.00
2019-05-22T04:06:21.976Z,98477.16
2019-05-22T04:08:53.929Z,98473.16
2019-05-22T04:11:25.437Z,98473.31
2019-05-22T04:13:54.640Z,98478.82
2019-05-22T04:16:24.989Z,98474.81
2019-05-22T04:18:55.813Z,98488.87
2019-05-22T04:21:25.046Z,98486.09
2019-05-22T04:23:53.972Z,98486.19
2019-05-22T04:26:24.475Z,98494.22
2019-05-22T04:28:55.653Z,98489.67
2019-05-22T04:32:06.781Z,98498.40
2019-05-22T04:34:35.934Z,98503.75
2019-05-22T04:37:05.463Z,98507.97
2019-05-22T04:39:36.000Z,98514.84
2019-05-22T04:42:07.395Z,98511.53
2019-05-22T04:44:39.869Z,98512.77
2019-05-22T04:47:09.503Z,98516.58
2019-05-22T04:49:38.845Z,98522.91
2019-05-22T04:52:08.069Z,98514.22
2019-05-22T04:54:37.806Z,98515.20
2019-05-22T04:57:07.655Z,98521.75
2019-05-22T04:59:36.482Z,98521.39
2019-05-22T05:02:07.399Z,98521.81
2019-05-22T05:04:36.190Z,98523.33
2019-05-22T05:07:11.130Z,98525.94
2019-05-22T05:09:41.380Z,98520.31
2019-05-22T05:12:10.793Z,98525.25
2019-05-22T05:14:40.085Z,98526.92
2019-05-22T05:17:09.468Z,98522.49
2019-05-22T05:19:38.449Z,98526.61
2019-05-22T05:22:07.267Z,98532.23
2019-05-22T05:24:36.011Z,98537.29
2019-05-22T05:27:06.904Z,98543.14
2019-05-22T05:29:35.631Z,98552.08
2019-05-22T05:32:05.896Z,98546.11
2019-05-22T05:34:41.330Z,98552.06
2019-05-22T05:37:14.062Z,98546.98
2019-05-22T05:40:27.836Z,98557.66
2019-05-22T05:42:57.314Z,98556.39
2019-05-22T05:45:28.128Z,98553.87
2019-05-22T05:47:58.669Z,98559.56
2019-05-22T05:50:38.872Z,98552.37
2019-05-22T05:53:01.885Z,98558.68
2019-05-22T05:56:03.244Z,98558.68
2019-05-22T05:58:34.716Z,98562.80
2019-05-22T06:01:15.164Z,98562.88
2019-05-22T06:03:45.086Z,98562.08
2019-05-22T06:06:52.886Z,98568.73
2019-05-22T06:09:24.903Z,98567.70
2019-05-22T06:11:55.852Z,98565.26
2019-05-22T06:14:28.274Z,98569.51
2019-05-22T06:17:38.658Z,98570.69
2019-05-22T06:20:12.375Z,98564.70
2019-05-22T06:22:43.458Z,98576.52
2019-05-22T06:25:15.498Z,98577.52
2019-05-22T06:27:53.306Z,98583.71
2019-05-22T06:30:46.358Z,98577.56
2019-05-22T06:33:43.709Z,98585.49
2019-05-22T06:36:16.514Z,98588.27
2019-05-22T06:38:59.364Z,98585.62
2019-05-22T06:41:32.801Z,98593.97
2019-05-22T06:44:37.716Z,98589.89
2019-05-22T06:47:25.716Z,98598.77
2019-05-22T06:49:56.692Z,98595.96
2019-05-22T06:52:26.310Z,98600.66
2019-05-22T06:54:56.291Z,98600.19
2019-05-22T06:57:31.976Z,98603.03
2019-05-22T07:00:13.862Z,98601.19
2019-05-22T07:02:35.536Z,98604.70
2019-05-22T07:05:06.349Z,98607.47
2019-05-22T07:07:35.153Z,98614.23
2019-05-22T07:10:05.415Z,98608.91
2019-05-22T07:12:35.956Z,98611.33
2019-05-22T07:15:46.600Z,98616.67
2019-05-22T07:18:20.028Z,98616.78
2019-05-22T07:20:50.268Z,98619.02
2019-05-22T07:23:28.386Z,98621.61
2019-05-22T07:25:58.576Z,98621.06
2019-05-22T07:28:29.712Z,98622.73
2019-05-22T07:30:59.379Z,98619.22
2019-05-22T07:33:28.075Z,98631.98
2019-05-22T07:36:09.539Z,98628.17
2019-05-22T07:38:27.767Z,98630.84
2019-05-22T07:40:56.653Z,98629.92
2019-05-22T07:43:25.557Z,98640.16
2019-05-22T07:45:57.347Z,98636.70
2019-05-22T07:48:27.430Z,98642.14
2019-05-22T07:50:57.440Z,98647.36
2019-05-22T07:53:27.290Z,98641.42
2019-05-22T07:55:58.310Z,98642.39
2019-05-22T07:58:29.792Z,98645.77
2019-05-22T08:01:01.446Z,98654.44
2019-05-22T08:03:31.871Z,98652.77
2019-05-22T08:06:02.650Z,98646.72
2019-05-22T08:08:35.053Z,98649.41
2019-05-22T08:11:04.727Z,98658.71
2019-05-22T08:13:34.704Z,98658.87
2019-05-22T08:16:03.753Z,98660.77
2019-05-22T08:18:37.787Z,98662.08
2019-05-22T08:21:07.021Z,98669.16
2019-05-22T08:23:36.707Z,98658.31
2019-05-22T08:26:06.827Z,98660.73
2019-05-22T08:28:36.892Z,98662.57
2019-05-22T08:31:07.514Z,98668.57
2019-05-22T08:33:38.474Z,98674.92
2019-05-22T08:36:08.319Z,98669.76
2019-05-22T08:38:37.282Z,98672.38
2019-05-22T08:41:09.240Z,98681.49
2019-05-22T08:44:03.301Z,98675.45
2019-05-22T08:46:10.984Z,98671.78
2019-05-22T08:48:47.850Z,98679.72
2019-05-22T08:51:14.524Z,98686.75
2019-05-22T08:53:48.182Z,98686.75
2019-05-22T08:56:15.378Z,98694.83
2019-05-22T08:58:45.074Z,98693.38
2019-05-22T09:01:14.375Z,98696.39
2019-05-22T09:03:43.974Z,98700.06
2019-05-22T09:06:18.187Z,98713.96
2019-05-22T09:08:49.105Z,98716.29
2019-05-22T09:11:17.861Z,98720.45
2019-05-22T09:13:47.105Z,98715.37
2019-05-22T09:16:16.427Z,98720.72
2019-05-22T09:18:46.109Z,98717.44
2019-05-22T09:21:15.450Z,98716.86
2019-05-22T09:23:44.364Z,98724.31
2019-05-22T09:26:13.438Z,98722.37
2019-05-22T09:28:42.411Z,98734.91
2019-05-22T09:31:11.179Z,98723.48
2019-05-22T09:33:40.071Z,98725.04
2019-05-22T09:36:09.546Z,98724.99
2019-05-22T09:38:38.636Z,98726.80
2019-05-22T09:41:07.681Z,98730.55
2019-05-22T09:43:36.483Z,98733.45
2019-05-22T09:46:06.778Z,98739.45
2019-05-22T09:48:36.053Z,98742.03
2019-05-22T09:51:04.954Z,98744.25
2019-05-22T09:53:34.775Z,98742.45
2019-05-22T09:56:04.010Z,98743.30
2019-05-22T09:58:32.998Z,98747.05
2019-05-22T10:01:02.438Z,98751.72
2019-05-22T10:03:31.233Z,98752.43
2019-05-22T10:06:00.700Z,98749.20
2019-05-22T10:08:29.998Z,98749.45
2019-05-22T10:10:59.080Z,98742.39
2019-05-22T10:13:29.221Z,98750.56
2019-05-22T10:15:59.147Z,98751.72
2019-05-22T10:18:28.512Z,98749.31
2019-05-22T10:20:57.271Z,98748.76
2019-05-22T10:23:26.514Z,98758.08
2019-05-22T10:25:55.703Z,98763.41
2019-05-22T10:28:24.589Z,98764.95
2019-05-22T10:30:54.414Z,98757.09
2019-05-22T10:33:24.541Z,98769.01
2019-05-22T10:35:53.577Z,98771.27
2019-05-22T10:38:22.879Z,98774.56
2019-05-22T10:40:51.905Z,98776.63
2019-05-22T10:43:21.093Z,98781.77
2019-05-22T10:45:49.988Z,98788.23
2019-05-22T10:48:18.773Z,98787.01
2019-05-22T10:50:47.571Z,98786.73
2019-05-22T10:53:32.319Z,98783.60
2019-05-22T10:55:46.838Z,98793.01
2019-05-22T10:58:16.319Z,98793.23
2019-05-22T11:00:45.200Z,98794.45
2019-05-22T11:03:15.123Z,98797.48
2019-05-22T11:05:44.440Z,98794.94
2019-05-22T11:08:13.514Z,98801.48
2019-05-22T11:10:45.178Z,98796.09
2019-05-22T11:13:13.661Z,98800.62
2019-05-22T11:15:42.481Z,98790.42
2019-05-22T11:18:11.313Z,98792.41
2019-05-22T11:20:40.650Z,98798.59
2019-05-22T11:23:10.400Z,98800.76
2019-05-22T11:25:39.313Z,98803.41
2019-05-22T11:28:08.106Z,98801.83
2019-05-22T11:30:37.727Z,98790.05
2019-05-22T11:33:07.281Z,98795.56
2019-05-22T11:35:36.510Z,98801.91
2019-05-22T11:38:05.595Z,98803.52
2019-05-22T11:40:34.843Z,98805.78
2019-05-22T11:43:04.250Z,98803.45
2019-05-22T11:45:33.348Z,98808.77
2019-05-22T11:48:02.188Z,98808.56
2019-05-22T11:50:33.403Z,98816.02
2019-05-22T11:53:02.332Z,98820.05
2019-05-22T11:55:44.091Z,98822.41
2019-05-22T11:58:02.464Z,98813.46
2019-05-22T12:00:31.387Z,98820.80
2019-05-22T12:03:02.043Z,98815.53
2019-05-22T12:05:32.210Z,98819.84
2019-05-22T12:08:02.096Z,98828.19
2019-05-22T12:10:31.231Z,98834.69
2019-05-22T12:13:01.294Z,98835.76
2019-05-22T12:15:30.968Z,98829.83
2019-05-22T12:18:00.570Z,98842.75
2019-05-22T12:20:30.725Z,98835.72
2019-05-22T12:22:59.595Z,98840.16
2019-05-22T12:25:29.188Z,98838.73
2019-05-22T12:27:58.615Z,98851.02
2019-05-22T12:30:28.433Z,98844.94
2019-05-22T12:32:59.352Z,98856.34
2019-05-22T12:35:29.131Z,98845.39
2019-05-22T12:37:58.738Z,98852.36
2019-05-22T12:40:31.973Z,98858.26
2019-05-22T12:43:02.187Z,98852.06
2019-05-22T12:45:31.150Z,98862.06
2019-05-22T12:48:01.119Z,98860.45
2019-05-22T12:50:31.861Z,98862.84
2019-05-22T12:53:02.804Z,98860.39
2019-05-22T12:55:32.294Z,98860.80
2019-05-22T12:58:02.202Z,98864.36
2019-05-22T13:00:31.259Z,98864.66
2019-05-22T13:03:02.078Z,98862.23
2019-05-22T13:05:32.113Z,98865.51
2019-05-22T13:08:01.458Z,98862.38
2019-05-22T13:10:31.045Z,98865.06
2019-05-22T13:12:59.932Z,98860.50
2019-05-22T13:15:28.923Z,98856.18
2019-05-22T13:17:59.278Z,98851.02
2019-05-22T13:20:41.931Z,98853.22
2019-05-22T13:23:04.584Z,98852.84
2019-05-22T13:25:37.015Z,98852.24
2019-05-22T13:28:06.966Z,98849.47
2019-05-22T13:30:39.354Z,98849.28
2019-05-22T13:33:11.489Z,98847.98
2019-05-22T13:35:41.747Z,98850.33
2019-05-22T13:38:12.464Z,98861.41
2019-05-22T13:40:41.407Z,98855.98
2019-05-22T13:43:11.602Z,98857.73
2019-05-22T13:45:40.665Z,98857.03
2019-05-22T13:48:09.875Z,98851.98
2019-05-22T13:50:39.312Z,98856.27
2019-05-22T13:53:10.991Z,98860.45
2019-05-22T13:55:40.282Z,98858.23
2019-05-22T13:58:10.674Z,98854.34
2019-05-22T14:00:40.541Z,98853.76
2019-05-22T14:03:09.840Z,98861.34
2019-05-22T14:05:39.105Z,98854.58
2019-05-22T14:08:08.894Z,98857.02
2019-05-22T14:10:39.719Z,98857.61
2019-05-22T14:13:09.438Z,98855.59
2019-05-22T14:15:50.508Z,98854.50
2019-05-22T14:18:09.633Z,98858.41
2019-05-22T14:20:38.850Z,98863.94
2019-05-22T14:23:08.098Z,98871.44
2019-05-22T14:25:37.560Z,98868.41
2019-05-22T14:28:08.084Z,98868.66
2019-05-22T14:30:37.837Z,98871.25
2019-05-22T14:33:06.945Z,98864.80
2019-05-22T14:35:48.439Z,98864.00
2019-05-22T14:38:09.987Z,98866.44
2019-05-22T14:40:39.223Z,98866.32
2019-05-22T14:43:08.507Z,98862.89
2019-05-22T14:45:38.068Z,98864.09
2019-05-22T14:48:07.679Z,98865.94
2019-05-22T14:50:37.320Z,98866.31
2019-05-22T14:53:06.403Z,98862.69
2019-05-22T14:55:37.084Z,98864.38
2019-05-22T14:58:06.641Z,98866.59
2019-05-22T15:00:36.577Z,98867.27
2019-05-22T15:03:06.544Z,98862.41
2019-05-22T15:05:35.643Z,98861.39
2019-05-22T15:08:05.935Z,98859.00
2019-05-22T15:10:36.072Z,98858.00
2019-05-22T15:13:05.995Z,98852.22
2019-05-22T15:15:40.145Z,98863.00
2019-05-22T15:18:06.564Z,98857.95
2019-05-22T15:20:42.125Z,98855.77
2019-05-22T15:23:11.966Z,98858.65
2019-05-22T15:25:41.509Z,98850.75
2019-05-22T15:28:12.215Z,98860.47
2019-05-22T15:30:47.286Z,98855.09
2019-05-22T15:33:16.864Z,98857.86
2019-05-22T15:35:48.093Z,98858.37
2019-05-22T15:38:18.038Z,98862.86
2019-05-22T15:40:46.851Z,98864.88
2019-05-22T15:43:17.677Z,98860.05
2019-05-22T15:45:46.714Z,98859.34
2019-05-22T15:48:23.408Z,98860.05
2019-05-22T15:50:55.962Z,98862.80
2019-05-22T15:53:25.397Z,98862.41
2019-05-22T15:55:55.485Z,98864.18
2019-05-22T15:58:27.553Z,98857.80
2019-05-22T16:00:58.768Z,98858.45
2019-05-22T16:06:19.203Z,98869.53
2019-05-22T16:08:49.628Z,98873.16
2019-05-22T16:11:20.851Z,98874.11
2019-05-22T16:13:51.193Z,98874.61
2019-05-22T16:16:21.968Z,98869.23
2019-05-22T16:18:52.412Z,98869.86
2019-05-22T16:21:28.293Z,98872.91
2019-05-22T16:23:59.689Z,98869.72
2019-05-22T16:26:30.265Z,98868.72
2019-05-22T16:29:02.539Z,98867.53
2019-05-22T16:31:32.721Z,98866.50
2019-05-22T16:34:01.861Z,98875.74
2019-05-22T16:36:32.613Z,98871.30
2019-05-22T16:39:02.370Z,98873.66
2019-05-22T16:41:34.441Z,98877.69
2019-05-22T16:44:04.374Z,98864.58
2019-05-22T16:46:33.635Z,98871.27
2019-05-22T16:49:02.585Z,98867.61
2019-05-22T16:51:31.678Z,98869.80
2019-05-22T16:54:06.202Z,98875.45
2019-05-22T16:56:35.888Z,98864.75
2019-05-22T16:59:05.781Z,98857.36
2019-05-22T17:01:56.306Z,98853.25
2019-05-22T17:04:06.999Z,98860.50
2019-05-22T17:06:36.680Z,98860.16
2019-05-22T17:09:09.456Z,98859.13
2019-05-22T17:11:38.546Z,98858.32
2019-05-22T17:14:08.991Z,98860.81
2019-05-22T17:16:41.115Z,98868.21
2019-05-22T17:19:25.803Z,98867.52
2019-05-22T17:21:42.147Z,98871.38
2019-05-22T17:24:11.488Z,98869.20
2019-05-22T17:26:41.363Z,98870.42
2019-05-22T17:29:11.985Z,98876.27
2019-05-22T17:31:47.879Z,98874.73
2019-05-22T17:34:36.730Z,98876.61
2019-05-22T17:37:18.578Z,98878.97
2019-05-22T17:39:53.546Z,98876.78
2019-05-22T17:42:30.305Z,98873.92
2019-05-22T17:45:01.718Z,98872.25
2019-05-22T17:47:31.746Z,98872.91
2019-05-22T17:50:03.290Z,98875.27
2019-05-22T17:52:35.514Z,98867.88
2019-05-22T17:55:06.422Z,98865.87
2019-05-22T17:57:37.308Z,98864.50
2019-05-22T18:00:13.261Z,98861.82
2019-05-22T18:02:42.373Z,98860.45
2019-05-22T18:05:12.170Z,98866.97
2019-05-22T18:07:41.722Z,98867.84
2019-05-22T18:10:11.513Z,98869.12
2019-05-22T18:12:41.906Z,98864.87
2019-05-22T18:15:12.070Z,98871.70
2019-05-22T18:17:41.346Z,98873.55
2019-05-22T18:20:11.346Z,98871.89
2019-05-22T18:22:40.505Z,98868.73
2019-05-22T18:25:10.244Z,98871.44
2019-05-22T18:27:43.684Z,98871.73
2019-05-22T18:30:14.315Z,98869.31
2019-05-22T18:32:43.897Z,98873.16
2019-05-22T18:35:18.133Z,98877.69
2019-05-22T18:37:47.006Z,98876.31
2019-05-22T18:40:18.987Z,98883.91
2019-05-22T18:42:48.126Z,98884.48
2019-05-22T18:45:18.389Z,98885.72
2019-05-22T18:47:47.993Z,98882.56
2019-05-22T18:50:17.590Z,98887.27
2019-05-22T18:52:50.224Z,98893.76
2019-05-22T18:55:19.911Z,98890.49
2019-05-22T18:57:48.856Z,98893.31
2019-05-22T19:00:22.401Z,98897.00
2019-05-22T19:02:51.921Z,98897.67
2019-05-22T19:05:24.792Z,98899.81
2019-05-22T19:07:53.781Z,98896.75
2019-05-22T19:10:23.122Z,98899.12
2019-05-22T19:12:52.210Z,98904.83
2019-05-22T19:15:21.400Z,98900.61
2019-05-22T19:17:50.440Z,98905.61
2019-05-22T19:20:20.108Z,98908.02
2019-05-22T19:23:00.360Z,98904.07
2019-05-22T19:25:30.821Z,98905.14
2019-05-22T19:27:59.738Z,98910.13
2019-05-22T19:30:28.995Z,98907.93
2019-05-22T19:32:57.934Z,98907.45
2019-05-22T19:35:26.853Z,98916.92
2019-05-22T19:37:56.741Z,98915.09
2019-05-22T19:40:25.890Z,98912.28
2019-05-22T19:42:55.268Z,98914.75
2019-05-22T19:45:24.203Z,98915.73
2019-05-22T19:47:56.864Z,98915.94
2019-05-22T19:50:26.879Z,98917.34
2019-05-22T19:52:57.545Z,98916.75
2019-05-22T19:55:29.278Z,98920.36
2019-05-22T19:57:58.907Z,98924.14
2019-05-22T20:00:27.968Z,98926.41
2019-05-22T20:02:56.923Z,98925.97
2019-05-22T20:05:26.478Z,98924.64
2019-05-22T20:07:55.872Z,98924.58
2019-05-22T20:10:25.330Z,98928.07
2019-05-22T20:12:55.496Z,98926.76
2019-05-22T20:15:24.880Z,98925.61
2019-05-22T20:17:54.229Z,98928.42
2019-05-22T20:20:24.229Z,98928.58
2019-05-22T20:22:53.162Z,98932.64
2019-05-22T20:25:22.928Z,98930.59
2019-05-22T20:27:52.058Z,98936.22
2019-05-22T20:30:22.923Z,98935.07
2019-05-22T20:32:52.259Z,98935.07
2019-05-22T20:35:21.371Z,98937.73
2019-05-22T20:37:50.618Z,98935.16
2019-05-22T20:40:22.037Z,98943.42
2019-05-22T20:42:51.582Z,98936.19
2019-05-22T20:45:24.649Z,98936.45
2019-05-22T20:48:09.641Z,98936.20
2019-05-22T20:50:47.417Z,98934.16
2019-05-22T20:53:17.205Z,98940.02
2019-05-22T20:55:48.374Z,98930.08
2019-05-22T20:58:19.231Z,98934.96
2019-05-22T21:00:49.908Z,98932.16
2019-05-22T21:03:21.209Z,98941.57
2019-05-22T21:05:52.863Z,98973.55
2019-05-22T21:08:24.272Z,98945.64
2019-05-22T21:10:54.272Z,98943.10
2019-05-22T21:13:23.827Z,98949.05
2019-05-22T21:15:55.038Z,98947.71
2019-05-22T21:18:30.841Z,98948.73
2019-05-22T21:21:00.760Z,98954.53
2019-05-22T21:23:30.380Z,98955.50
2019-05-22T21:25:59.289Z,98948.84
2019-05-22T21:28:28.532Z,98956.85
2019-05-22T21:30:58.362Z,98956.85
2019-05-22T21:33:28.965Z,98954.31
2019-05-22T21:35:58.512Z,98954.31
2019-05-22T21:38:29.268Z,98958.18
2019-05-22T21:40:59.501Z,98958.81
2019-05-22T21:43:29.451Z,98959.17
2019-05-22T21:45:58.929Z,98954.92
2019-05-22T21:48:29.833Z,98950.09
2019-05-22T21:50:58.884Z,98941.13
2019-05-22T21:53:28.229Z,98945.41
2019-05-22T21:56:04.733Z,98945.41
2019-05-22T21:58:29.253Z,98949.73
2019-05-22T22:01:26.495Z,98949.73
2019-05-22T22:04:17.074Z,98952.15
2019-05-22T22:06:47.802Z,98949.98
2019-05-22T22:09:18.462Z,98951.56
2019-05-22T22:11:48.464Z,98952.52
2019-05-22T22:14:18.460Z,98949.14
2019-05-22T22:16:47.868Z,98951.81
2019-05-22T22:19:18.300Z,98950.37
2019-05-22T22:21:48.133Z,98950.23
2019-05-22T22:24:17.339Z,98957.03
2019-05-22T22:26:46.901Z,98952.05
2019-05-22T22:29:16.216Z,98950.36
2019-05-22T22:31:46.218Z,98953.88
2019-05-22T22:34:23.407Z,98963.91
2019-05-22T22:36:52.380Z,98957.27
2019-05-22T22:39:23.154Z,98960.52
2019-05-22T22:41:53.344Z,98962.45
2019-05-22T22:44:22.592Z,98964.37
2019-05-22T22:46:56.036Z,98966.31
2019-05-22T22:49:28.977Z,98963.91
2019-05-22T22:51:59.107Z,98972.86
2019-05-22T22:54:28.893Z,98967.27
2019-05-22T22:56:59.125Z,98976.01
2019-05-22T22:59:28.328Z,98972.72
2019-05-22T23:02:00.651Z,98975.03
2019-05-22T23:04:30.824Z,98979.14
2019-05-22T23:07:05.848Z,98972.73
2019-05-22T23:09:37.698Z,98976.46
2019-05-22T23:12:07.767Z,98980.45
2019-05-22T23:14:37.759Z,98978.51
2019-05-22T23:17:08.627Z,98976.83
2019-05-22T23:19:38.457Z,98980.78
2019-05-22T23:22:27.443Z,98982.63
2019-05-22T23:24:56.704Z,98981.72
2019-05-22T23:27:27.358Z,98986.06
2019-05-22T23:29:56.985Z,98983.05
2019-05-22T23:32:27.022Z,98990.53
2019-05-22T23:34:58.727Z,98991.02
2019-05-22T23:37:28.708Z,98988.23
2019-05-22T23:39:59.258Z,98987.70
2019-05-22T23:42:36.175Z,98986.69
2019-05-22T23:45:08.138Z,98982.98
2019-05-22T23:47:51.356Z,98986.38
2019-05-22T23:50:20.665Z,98981.66
2019-05-22T23:52:49.426Z,98982.86
2019-05-22T23:55:19.055Z,98980.77
2019-05-22T23:57:51.119Z,98982.50
